sensor_id;sensor_type;location;lat;lon;timestamp;P1;durP1;ratioP1;P2;durP2;ratioP2
40204;SDS011;26963;42.666;23.366;2024-01-25T00:02:03;25.48;;;15.93;;
40204;SDS011;26963;42.666;23.366;2024-01-25T00:04:29;24.58;;;16.15;;
40204;SDS011;26963;42.666;23.366;2024-01-25T00:06:55;24.13;;;15.20;;
40204;SDS011;26963;42.666;23.366;2024-01-25T00:09:20;26.42;;;15.40;;
40204;SDS011;26963;42.666;23.366;2024-01-25T00:11:46;28.38;;;16.98;;
40204;SDS011;26963;42.666;23.366;2024-01-25T00:14:11;25.98;;;15.35;;
40204;SDS011;26963;42.666;23.366;2024-01-25T00:16:40;25.27;;;15.60;;
40204;SDS011;26963;42.666;23.366;2024-01-25T00:19:07;24.65;;;16.90;;
40204;SDS011;26963;42.666;23.366;2024-01-25T00:21:32;26.85;;;16.13;;
40204;SDS011;26963;42.666;23.366;2024-01-25T00:23:58;23.83;;;15.02;;
40204;SDS011;26963;42.666;23.366;2024-01-25T00:26:23;22.58;;;15.32;;
40204;SDS011;26963;42.666;23.366;2024-01-25T00:28:49;19.63;;;13.38;;
40204;SDS011;26963;42.666;23.366;2024-01-25T00:31:15;22.98;;;14.32;;
40204;SDS011;26963;42.666;23.366;2024-01-25T00:33:40;20.45;;;13.80;;
40204;SDS011;26963;42.666;23.366;2024-01-25T00:36:06;20.90;;;14.23;;
40204;SDS011;26963;42.666;23.366;2024-01-25T00:38:32;22.77;;;14.00;;
40204;SDS011;26963;42.666;23.366;2024-01-25T00:40:58;23.02;;;13.77;;
40204;SDS011;26963;42.666;23.366;2024-01-25T00:43:24;23.55;;;14.68;;
40204;SDS011;26963;42.666;23.366;2024-01-25T00:45:50;22.88;;;14.95;;
40204;SDS011;26963;42.666;23.366;2024-01-25T00:48:16;20.50;;;14.18;;
40204;SDS011;26963;42.666;23.366;2024-01-25T00:50:42;21.50;;;14.18;;
40204;SDS011;26963;42.666;23.366;2024-01-25T00:53:08;21.63;;;13.75;;
40204;SDS011;26963;42.666;23.366;2024-01-25T00:55:34;21.05;;;14.23;;
40204;SDS011;26963;42.666;23.366;2024-01-25T00:57:59;23.42;;;13.75;;
40204;SDS011;26963;42.666;23.366;2024-01-25T01:00:26;21.83;;;13.82;;
40204;SDS011;26963;42.666;23.366;2024-01-25T01:02:52;22.15;;;13.70;;
40204;SDS011;26963;42.666;23.366;2024-01-25T01:05:19;21.65;;;13.48;;
40204;SDS011;26963;42.666;23.366;2024-01-25T01:07:45;21.48;;;13.48;;
40204;SDS011;26963;42.666;23.366;2024-01-25T01:10:11;21.33;;;13.70;;
40204;SDS011;26963;42.666;23.366;2024-01-25T01:12:37;24.45;;;13.88;;
40204;SDS011;26963;42.666;23.366;2024-01-25T01:15:03;19.83;;;13.65;;
40204;SDS011;26963;42.666;23.366;2024-01-25T01:17:29;20.20;;;13.68;;
40204;SDS011;26963;42.666;23.366;2024-01-25T01:19:54;19.33;;;13.88;;
40204;SDS011;26963;42.666;23.366;2024-01-25T01:22:20;21.00;;;13.52;;
40204;SDS011;26963;42.666;23.366;2024-01-25T01:24:46;21.40;;;13.40;;
40204;SDS011;26963;42.666;23.366;2024-01-25T01:27:11;23.05;;;14.45;;
40204;SDS011;26963;42.666;23.366;2024-01-25T01:29:37;21.73;;;13.68;;
40204;SDS011;26963;42.666;23.366;2024-01-25T01:32:03;21.73;;;14.45;;
40204;SDS011;26963;42.666;23.366;2024-01-25T01:34:28;27.77;;;14.52;;
40204;SDS011;26963;42.666;23.366;2024-01-25T01:36:54;21.95;;;14.73;;
40204;SDS011;26963;42.666;23.366;2024-01-25T01:39:20;21.80;;;14.07;;
40204;SDS011;26963;42.666;23.366;2024-01-25T01:41:48;20.70;;;13.95;;
40204;SDS011;26963;42.666;23.366;2024-01-25T01:44:14;22.08;;;13.95;;
40204;SDS011;26963;42.666;23.366;2024-01-25T01:46:40;20.65;;;14.30;;
40204;SDS011;26963;42.666;23.366;2024-01-25T01:49:08;24.10;;;14.18;;
40204;SDS011;26963;42.666;23.366;2024-01-25T01:51:36;20.27;;;14.23;;
40204;SDS011;26963;42.666;23.366;2024-01-25T01:54:03;21.70;;;14.02;;
40204;SDS011;26963;42.666;23.366;2024-01-25T01:56:32;22.70;;;13.77;;
40204;SDS011;26963;42.666;23.366;2024-01-25T01:59:02;22.85;;;14.07;;
40204;SDS011;26963;42.666;23.366;2024-01-25T02:01:30;20.52;;;12.63;;
40204;SDS011;26963;42.666;23.366;2024-01-25T02:03:56;19.52;;;12.50;;
40204;SDS011;26963;42.666;23.366;2024-01-25T02:06:25;18.00;;;12.50;;
40204;SDS011;26963;42.666;23.366;2024-01-25T02:08:51;19.77;;;11.90;;
40204;SDS011;26963;42.666;23.366;2024-01-25T02:11:18;19.58;;;12.45;;
40204;SDS011;26963;42.666;23.366;2024-01-25T02:13:45;19.23;;;14.13;;
40204;SDS011;26963;42.666;23.366;2024-01-25T02:16:10;19.40;;;13.77;;
40204;SDS011;26963;42.666;23.366;2024-01-25T02:18:36;27.83;;;16.38;;
40204;SDS011;26963;42.666;23.366;2024-01-25T02:21:02;24.63;;;15.40;;
40204;SDS011;26963;42.666;23.366;2024-01-25T02:23:27;24.83;;;15.95;;
40204;SDS011;26963;42.666;23.366;2024-01-25T02:25:53;22.60;;;15.60;;
40204;SDS011;26963;42.666;23.366;2024-01-25T02:28:19;22.98;;;15.52;;
40204;SDS011;26963;42.666;23.366;2024-01-25T02:30:44;23.48;;;15.43;;
40204;SDS011;26963;42.666;23.366;2024-01-25T02:33:10;24.08;;;15.18;;
40204;SDS011;26963;42.666;23.366;2024-01-25T02:35:36;23.50;;;14.95;;
40204;SDS011;26963;42.666;23.366;2024-01-25T02:38:02;21.60;;;13.88;;
40204;SDS011;26963;42.666;23.366;2024-01-25T02:40:28;20.90;;;13.38;;
40204;SDS011;26963;42.666;23.366;2024-01-25T02:42:54;21.58;;;14.32;;
40204;SDS011;26963;42.666;23.366;2024-01-25T02:45:19;19.85;;;13.43;;
40204;SDS011;26963;42.666;23.366;2024-01-25T02:47:45;22.08;;;13.60;;
40204;SDS011;26963;42.666;23.366;2024-01-25T02:50:11;21.60;;;13.65;;
40204;SDS011;26963;42.666;23.366;2024-01-25T02:52:36;21.07;;;13.73;;
40204;SDS011;26963;42.666;23.366;2024-01-25T02:55:02;21.58;;;13.55;;
40204;SDS011;26963;42.666;23.366;2024-01-25T02:57:28;20.27;;;14.33;;
40204;SDS011;26963;42.666;23.366;2024-01-25T02:59:56;18.20;;;12.75;;
40204;SDS011;26963;42.666;23.366;2024-01-25T03:02:22;21.50;;;12.70;;
40204;SDS011;26963;42.666;23.366;2024-01-25T03:04:48;19.05;;;12.82;;
40204;SDS011;26963;42.666;23.366;2024-01-25T03:07:13;21.45;;;13.52;;
40204;SDS011;26963;42.666;23.366;2024-01-25T03:09:39;22.70;;;13.73;;
40204;SDS011;26963;42.666;23.366;2024-01-25T03:12:05;23.67;;;13.52;;
40204;SDS011;26963;42.666;23.366;2024-01-25T03:14:31;19.27;;;13.02;;
40204;SDS011;26963;42.666;23.366;2024-01-25T03:16:56;19.13;;;13.25;;
40204;SDS011;26963;42.666;23.366;2024-01-25T03:19:26;19.17;;;12.55;;
40204;SDS011;26963;42.666;23.366;2024-01-25T03:21:52;14.95;;;9.60;;
40204;SDS011;26963;42.666;23.366;2024-01-25T03:24:20;6.53;;;4.00;;
40204;SDS011;26963;42.666;23.366;2024-01-25T03:26:46;5.82;;;2.90;;
40204;SDS011;26963;42.666;23.366;2024-01-25T03:29:11;2.33;;;1.70;;
40204;SDS011;26963;42.666;23.366;2024-01-25T03:31:37;3.17;;;1.55;;
40204;SDS011;26963;42.666;23.366;2024-01-25T03:34:03;3.25;;;1.58;;
40204;SDS011;26963;42.666;23.366;2024-01-25T03:36:30;3.70;;;1.73;;
40204;SDS011;26963;42.666;23.366;2024-01-25T03:38:56;3.25;;;1.45;;
40204;SDS011;26963;42.666;23.366;2024-01-25T03:41:22;2.60;;;1.50;;
40204;SDS011;26963;42.666;23.366;2024-01-25T03:43:49;2.15;;;1.48;;
40204;SDS011;26963;42.666;23.366;2024-01-25T03:46:15;5.45;;;2.45;;
40204;SDS011;26963;42.666;23.366;2024-01-25T03:48:41;2.95;;;1.60;;
40204;SDS011;26963;42.666;23.366;2024-01-25T03:51:07;1.95;;;1.10;;
40204;SDS011;26963;42.666;23.366;2024-01-25T03:53:33;2.05;;;1.52;;
40204;SDS011;26963;42.666;23.366;2024-01-25T03:55:59;3.40;;;1.30;;
40204;SDS011;26963;42.666;23.366;2024-01-25T03:58:24;2.78;;;1.50;;
40204;SDS011;26963;42.666;23.366;2024-01-25T04:00:50;2.28;;;1.50;;
40204;SDS011;26963;42.666;23.366;2024-01-25T04:03:16;3.63;;;1.52;;
40204;SDS011;26963;42.666;23.366;2024-01-25T04:05:42;3.90;;;1.73;;
40204;SDS011;26963;42.666;23.366;2024-01-25T04:08:07;3.75;;;1.65;;
40204;SDS011;26963;42.666;23.366;2024-01-25T04:10:33;3.60;;;1.60;;
40204;SDS011;26963;42.666;23.366;2024-01-25T04:12:59;4.75;;;2.20;;
40204;SDS011;26963;42.666;23.366;2024-01-25T04:15:30;3.92;;;2.25;;
40204;SDS011;26963;42.666;23.366;2024-01-25T04:17:55;4.95;;;2.28;;
40204;SDS011;26963;42.666;23.366;2024-01-25T04:20:21;4.60;;;2.67;;
40204;SDS011;26963;42.666;23.366;2024-01-25T04:22:47;4.10;;;2.00;;
40204;SDS011;26963;42.666;23.366;2024-01-25T04:25:13;3.92;;;1.88;;
40204;SDS011;26963;42.666;23.366;2024-01-25T04:27:39;3.67;;;1.65;;
40204;SDS011;26963;42.666;23.366;2024-01-25T04:30:05;3.90;;;2.17;;
40204;SDS011;26963;42.666;23.366;2024-01-25T04:32:32;3.90;;;1.92;;
40204;SDS011;26963;42.666;23.366;2024-01-25T04:34:57;3.80;;;2.10;;
40204;SDS011;26963;42.666;23.366;2024-01-25T04:37:23;6.35;;;3.30;;
40204;SDS011;26963;42.666;23.366;2024-01-25T04:39:49;4.55;;;2.30;;
40204;SDS011;26963;42.666;23.366;2024-01-25T04:42:14;3.75;;;1.70;;
40204;SDS011;26963;42.666;23.366;2024-01-25T04:44:40;5.32;;;2.70;;
40204;SDS011;26963;42.666;23.366;2024-01-25T04:47:05;5.60;;;2.80;;
40204;SDS011;26963;42.666;23.366;2024-01-25T04:49:31;5.25;;;3.10;;
40204;SDS011;26963;42.666;23.366;2024-01-25T04:51:57;7.30;;;3.75;;
40204;SDS011;26963;42.666;23.366;2024-01-25T04:54:22;7.15;;;3.70;;
40204;SDS011;26963;42.666;23.366;2024-01-25T04:56:48;7.32;;;3.67;;
40204;SDS011;26963;42.666;23.366;2024-01-25T04:59:13;7.65;;;3.65;;
40204;SDS011;26963;42.666;23.366;2024-01-25T05:01:39;6.53;;;3.40;;
40204;SDS011;26963;42.666;23.366;2024-01-25T05:04:05;8.18;;;4.63;;
40204;SDS011;26963;42.666;23.366;2024-01-25T05:06:30;8.15;;;4.03;;
40204;SDS011;26963;42.666;23.366;2024-01-25T05:08:56;7.00;;;3.55;;
40204;SDS011;26963;42.666;23.366;2024-01-25T05:11:21;13.48;;;8.32;;
40204;SDS011;26963;42.666;23.366;2024-01-25T05:13:47;6.57;;;3.53;;
40204;SDS011;26963;42.666;23.366;2024-01-25T05:16:12;10.30;;;5.72;;
40204;SDS011;26963;42.666;23.366;2024-01-25T05:18:38;8.55;;;4.53;;
40204;SDS011;26963;42.666;23.366;2024-01-25T05:21:04;7.97;;;4.15;;
40204;SDS011;26963;42.666;23.366;2024-01-25T05:23:30;14.60;;;7.30;;
40204;SDS011;26963;42.666;23.366;2024-01-25T05:25:55;8.48;;;5.32;;
40204;SDS011;26963;42.666;23.366;2024-01-25T05:28:21;9.55;;;5.47;;
40204;SDS011;26963;42.666;23.366;2024-01-25T05:30:46;11.27;;;5.15;;
40204;SDS011;26963;42.666;23.366;2024-01-25T05:33:12;24.85;;;7.28;;
40204;SDS011;26963;42.666;23.366;2024-01-25T05:35:37;10.18;;;3.83;;
40204;SDS011;26963;42.666;23.366;2024-01-25T05:38:03;8.18;;;4.53;;
40204;SDS011;26963;42.666;23.366;2024-01-25T05:40:29;7.03;;;3.65;;
40204;SDS011;26963;42.666;23.366;2024-01-25T05:42:54;6.05;;;2.88;;
40204;SDS011;26963;42.666;23.366;2024-01-25T05:45:20;9.25;;;4.28;;
40204;SDS011;26963;42.666;23.366;2024-01-25T05:47:49;5.03;;;3.30;;
40204;SDS011;26963;42.666;23.366;2024-01-25T05:50:15;8.45;;;3.25;;
40204;SDS011;26963;42.666;23.366;2024-01-25T05:52:40;6.18;;;3.00;;
40204;SDS011;26963;42.666;23.366;2024-01-25T05:55:06;7.28;;;3.30;;
40204;SDS011;26963;42.666;23.366;2024-01-25T05:57:36;4.90;;;2.50;;
40204;SDS011;26963;42.666;23.366;2024-01-25T06:00:05;8.00;;;4.63;;
40204;SDS011;26963;42.666;23.366;2024-01-25T06:02:31;5.88;;;2.95;;
40204;SDS011;26963;42.666;23.366;2024-01-25T06:04:57;7.30;;;2.67;;
40204;SDS011;26963;42.666;23.366;2024-01-25T06:07:24;5.75;;;2.83;;
40204;SDS011;26963;42.666;23.366;2024-01-25T06:09:52;17.38;;;11.13;;
40204;SDS011;26963;42.666;23.366;2024-01-25T06:12:20;9.15;;;6.00;;
40204;SDS011;26963;42.666;23.366;2024-01-25T06:14:46;10.60;;;5.82;;
40204;SDS011;26963;42.666;23.366;2024-01-25T06:17:12;5.60;;;3.22;;
40204;SDS011;26963;42.666;23.366;2024-01-25T06:19:38;14.68;;;7.47;;
40204;SDS011;26963;42.666;23.366;2024-01-25T06:22:03;12.98;;;8.73;;
40204;SDS011;26963;42.666;23.366;2024-01-25T06:24:29;9.85;;;4.32;;
40204;SDS011;26963;42.666;23.366;2024-01-25T06:26:54;9.38;;;4.32;;
40204;SDS011;26963;42.666;23.366;2024-01-25T06:29:20;7.82;;;3.90;;
40204;SDS011;26963;42.666;23.366;2024-01-25T06:31:45;7.68;;;3.40;;
40204;SDS011;26963;42.666;23.366;2024-01-25T06:34:11;10.43;;;6.40;;
40204;SDS011;26963;42.666;23.366;2024-01-25T06:36:38;8.25;;;4.15;;
40204;SDS011;26963;42.666;23.366;2024-01-25T06:39:03;12.85;;;5.03;;
40204;SDS011;26963;42.666;23.366;2024-01-25T06:41:32;6.57;;;3.25;;
40204;SDS011;26963;42.666;23.366;2024-01-25T06:43:58;8.48;;;4.55;;
40204;SDS011;26963;42.666;23.366;2024-01-25T06:46:24;8.98;;;4.13;;
40204;SDS011;26963;42.666;23.366;2024-01-25T06:48:50;8.73;;;3.55;;
40204;SDS011;26963;42.666;23.366;2024-01-25T06:51:16;7.20;;;2.92;;
40204;SDS011;26963;42.666;23.366;2024-01-25T06:53:41;6.95;;;3.72;;
40204;SDS011;26963;42.666;23.366;2024-01-25T06:56:07;9.15;;;3.80;;
40204;SDS011;26963;42.666;23.366;2024-01-25T06:58:33;8.85;;;3.88;;
40204;SDS011;26963;42.666;23.366;2024-01-25T07:00:59;7.93;;;3.97;;
40204;SDS011;26963;42.666;23.366;2024-01-25T07:03:25;9.05;;;3.63;;
40204;SDS011;26963;42.666;23.366;2024-01-25T07:05:51;11.23;;;4.45;;
40204;SDS011;26963;42.666;23.366;2024-01-25T07:08:16;15.13;;;7.80;;
40204;SDS011;26963;42.666;23.366;2024-01-25T07:10:42;9.23;;;3.13;;
40204;SDS011;26963;42.666;23.366;2024-01-25T07:13:09;9.15;;;3.38;;
40204;SDS011;26963;42.666;23.366;2024-01-25T07:15:34;7.25;;;2.65;;
40204;SDS011;26963;42.666;23.366;2024-01-25T07:18:00;11.85;;;2.85;;
40204;SDS011;26963;42.666;23.366;2024-01-25T07:20:26;8.32;;;2.97;;
40204;SDS011;26963;42.666;23.366;2024-01-25T07:22:51;7.00;;;2.60;;
40204;SDS011;26963;42.666;23.366;2024-01-25T07:25:19;4.95;;;2.50;;
40204;SDS011;26963;42.666;23.366;2024-01-25T07:27:45;7.53;;;2.78;;
40204;SDS011;26963;42.666;23.366;2024-01-25T07:30:12;6.80;;;3.00;;
40204;SDS011;26963;42.666;23.366;2024-01-25T07:32:38;7.93;;;2.83;;
40204;SDS011;26963;42.666;23.366;2024-01-25T07:35:07;8.63;;;3.67;;
40204;SDS011;26963;42.666;23.366;2024-01-25T07:37:33;7.93;;;3.47;;
40204;SDS011;26963;42.666;23.366;2024-01-25T07:39:58;10.10;;;3.25;;
40204;SDS011;26963;42.666;23.366;2024-01-25T07:42:24;7.95;;;3.00;;
40204;SDS011;26963;42.666;23.366;2024-01-25T07:44:49;9.45;;;4.00;;
40204;SDS011;26963;42.666;23.366;2024-01-25T07:47:15;7.50;;;3.38;;
40204;SDS011;26963;42.666;23.366;2024-01-25T07:49:43;12.70;;;3.20;;
40204;SDS011;26963;42.666;23.366;2024-01-25T07:52:09;9.23;;;3.50;;
40204;SDS011;26963;42.666;23.366;2024-01-25T07:54:34;6.65;;;2.97;;
40204;SDS011;26963;42.666;23.366;2024-01-25T07:57:00;9.77;;;3.30;;
40204;SDS011;26963;42.666;23.366;2024-01-25T07:59:25;13.60;;;4.20;;
40204;SDS011;26963;42.666;23.366;2024-01-25T08:01:51;8.02;;;3.30;;
40204;SDS011;26963;42.666;23.366;2024-01-25T08:04:16;8.68;;;3.22;;
40204;SDS011;26963;42.666;23.366;2024-01-25T08:06:42;9.23;;;3.25;;
40204;SDS011;26963;42.666;23.366;2024-01-25T08:09:07;10.07;;;3.95;;
40204;SDS011;26963;42.666;23.366;2024-01-25T08:11:34;9.32;;;3.50;;
40204;SDS011;26963;42.666;23.366;2024-01-25T08:14:00;23.73;;;15.15;;
40204;SDS011;26963;42.666;23.366;2024-01-25T08:16:26;31.10;;;18.58;;
40204;SDS011;26963;42.666;23.366;2024-01-25T08:18:51;11.13;;;7.00;;
40204;SDS011;26963;42.666;23.366;2024-01-25T08:21:17;11.77;;;6.15;;
40204;SDS011;26963;42.666;23.366;2024-01-25T08:23:42;10.20;;;4.50;;
40204;SDS011;26963;42.666;23.366;2024-01-25T08:26:08;9.65;;;4.40;;
40204;SDS011;26963;42.666;23.366;2024-01-25T08:28:41;12.65;;;4.80;;
40204;SDS011;26963;42.666;23.366;2024-01-25T08:31:10;10.48;;;3.58;;
40204;SDS011;26963;42.666;23.366;2024-01-25T08:33:36;11.38;;;3.42;;
40204;SDS011;26963;42.666;23.366;2024-01-25T08:36:02;8.32;;;3.30;;
40204;SDS011;26963;42.666;23.366;2024-01-25T08:38:29;10.23;;;5.80;;
40204;SDS011;26963;42.666;23.366;2024-01-25T08:40:54;12.75;;;5.15;;
40204;SDS011;26963;42.666;23.366;2024-01-25T08:43:20;10.73;;;4.43;;
40204;SDS011;26963;42.666;23.366;2024-01-25T08:45:45;7.50;;;3.20;;
40204;SDS011;26963;42.666;23.366;2024-01-25T08:48:11;8.13;;;3.47;;
40204;SDS011;26963;42.666;23.366;2024-01-25T08:50:38;7.82;;;3.42;;
40204;SDS011;26963;42.666;23.366;2024-01-25T08:53:04;9.55;;;3.50;;
40204;SDS011;26963;42.666;23.366;2024-01-25T08:55:30;7.65;;;3.15;;
40204;SDS011;26963;42.666;23.366;2024-01-25T08:57:56;9.52;;;3.50;;
40204;SDS011;26963;42.666;23.366;2024-01-25T09:00:23;9.68;;;3.05;;
40204;SDS011;26963;42.666;23.366;2024-01-25T09:02:48;10.25;;;2.85;;
40204;SDS011;26963;42.666;23.366;2024-01-25T09:05:14;7.03;;;3.00;;
40204;SDS011;26963;42.666;23.366;2024-01-25T09:07:40;8.98;;;3.15;;
40204;SDS011;26963;42.666;23.366;2024-01-25T09:10:06;9.68;;;3.40;;
40204;SDS011;26963;42.666;23.366;2024-01-25T09:12:33;8.73;;;3.63;;
40204;SDS011;26963;42.666;23.366;2024-01-25T09:15:00;12.20;;;4.63;;
40204;SDS011;26963;42.666;23.366;2024-01-25T09:17:26;6.78;;;3.13;;
40204;SDS011;26963;42.666;23.366;2024-01-25T09:19:51;7.20;;;3.20;;
40204;SDS011;26963;42.666;23.366;2024-01-25T09:22:17;11.00;;;3.55;;
40204;SDS011;26963;42.666;23.366;2024-01-25T09:24:45;11.63;;;4.47;;
40204;SDS011;26963;42.666;23.366;2024-01-25T09:27:14;6.88;;;3.00;;
40204;SDS011;26963;42.666;23.366;2024-01-25T09:29:40;11.00;;;3.40;;
40204;SDS011;26963;42.666;23.366;2024-01-25T09:32:07;14.40;;;7.43;;
40204;SDS011;26963;42.666;23.366;2024-01-25T09:34:36;8.98;;;3.38;;
40204;SDS011;26963;42.666;23.366;2024-01-25T09:37:02;9.15;;;3.53;;
40204;SDS011;26963;42.666;23.366;2024-01-25T09:39:28;9.63;;;3.20;;
40204;SDS011;26963;42.666;23.366;2024-01-25T09:41:54;8.25;;;3.22;;
40204;SDS011;26963;42.666;23.366;2024-01-25T09:44:20;7.05;;;3.38;;
40204;SDS011;26963;42.666;23.366;2024-01-25T09:46:46;9.27;;;3.63;;
40204;SDS011;26963;42.666;23.366;2024-01-25T09:49:11;6.13;;;3.25;;
40204;SDS011;26963;42.666;23.366;2024-01-25T09:51:38;7.82;;;3.05;;
40204;SDS011;26963;42.666;23.366;2024-01-25T09:54:05;7.50;;;3.20;;
40204;SDS011;26963;42.666;23.366;2024-01-25T09:56:32;8.52;;;3.30;;
40204;SDS011;26963;42.666;23.366;2024-01-25T09:58:58;9.35;;;4.10;;
40204;SDS011;26963;42.666;23.366;2024-01-25T10:01:25;11.65;;;3.63;;
40204;SDS011;26963;42.666;23.366;2024-01-25T10:03:52;7.50;;;3.80;;
40204;SDS011;26963;42.666;23.366;2024-01-25T10:06:17;8.73;;;3.85;;
40204;SDS011;26963;42.666;23.366;2024-01-25T10:08:44;10.40;;;4.10;;
40204;SDS011;26963;42.666;23.366;2024-01-25T10:11:10;10.23;;;4.50;;
40204;SDS011;26963;42.666;23.366;2024-01-25T10:13:43;10.25;;;4.47;;
40204;SDS011;26963;42.666;23.366;2024-01-25T10:16:15;11.27;;;4.45;;
40204;SDS011;26963;42.666;23.366;2024-01-25T10:18:44;13.63;;;6.72;;
40204;SDS011;26963;42.666;23.366;2024-01-25T10:21:12;10.23;;;4.43;;
40204;SDS011;26963;42.666;23.366;2024-01-25T10:23:39;8.68;;;4.10;;
40204;SDS011;26963;42.666;23.366;2024-01-25T10:26:05;17.55;;;7.85;;
40204;SDS011;26963;42.666;23.366;2024-01-25T10:28:33;11.63;;;5.07;;
40204;SDS011;26963;42.666;23.366;2024-01-25T10:31:02;10.75;;;4.43;;
40204;SDS011;26963;42.666;23.366;2024-01-25T10:33:29;10.27;;;4.25;;
40204;SDS011;26963;42.666;23.366;2024-01-25T10:35:58;10.23;;;3.72;;
40204;SDS011;26963;42.666;23.366;2024-01-25T10:38:28;10.20;;;3.63;;
40204;SDS011;26963;42.666;23.366;2024-01-25T10:41:03;9.82;;;5.35;;
40204;SDS011;26963;42.666;23.366;2024-01-25T10:43:29;10.38;;;4.25;;
40204;SDS011;26963;42.666;23.366;2024-01-25T10:45:56;9.45;;;4.00;;
40204;SDS011;26963;42.666;23.366;2024-01-25T10:48:26;9.93;;;4.05;;
40204;SDS011;26963;42.666;23.366;2024-01-25T10:50:53;11.07;;;4.65;;
40204;SDS011;26963;42.666;23.366;2024-01-25T10:53:19;9.00;;;3.63;;
40204;SDS011;26963;42.666;23.366;2024-01-25T10:55:47;7.82;;;4.18;;
40204;SDS011;26963;42.666;23.366;2024-01-25T10:58:14;13.07;;;4.45;;
40204;SDS011;26963;42.666;23.366;2024-01-25T11:00:41;11.90;;;4.00;;
40204;SDS011;26963;42.666;23.366;2024-01-25T11:03:07;10.27;;;3.97;;
40204;SDS011;26963;42.666;23.366;2024-01-25T11:05:33;8.48;;;4.05;;
40204;SDS011;26963;42.666;23.366;2024-01-25T11:07:59;9.63;;;3.67;;
40204;SDS011;26963;42.666;23.366;2024-01-25T11:10:25;6.47;;;3.42;;
40204;SDS011;26963;42.666;23.366;2024-01-25T11:12:56;9.15;;;3.75;;
40204;SDS011;26963;42.666;23.366;2024-01-25T11:15:31;9.70;;;4.03;;
40204;SDS011;26963;42.666;23.366;2024-01-25T11:17:58;7.43;;;3.88;;
40204;SDS011;26963;42.666;23.366;2024-01-25T11:20:26;11.93;;;4.35;;
40204;SDS011;26963;42.666;23.366;2024-01-25T11:23:01;9.52;;;3.78;;
40204;SDS011;26963;42.666;23.366;2024-01-25T11:25:28;7.43;;;3.53;;
40204;SDS011;26963;42.666;23.366;2024-01-25T11:27:55;9.38;;;3.47;;
40204;SDS011;26963;42.666;23.366;2024-01-25T11:30:21;11.18;;;3.83;;
40204;SDS011;26963;42.666;23.366;2024-01-25T11:32:48;7.82;;;3.72;;
40204;SDS011;26963;42.666;23.366;2024-01-25T11:35:14;9.88;;;3.70;;
40204;SDS011;26963;42.666;23.366;2024-01-25T11:37:45;9.68;;;3.85;;
40204;SDS011;26963;42.666;23.366;2024-01-25T11:40:11;8.65;;;4.22;;
40204;SDS011;26963;42.666;23.366;2024-01-25T11:42:41;9.50;;;4.60;;
40204;SDS011;26963;42.666;23.366;2024-01-25T11:45:09;10.48;;;4.00;;
40204;SDS011;26963;42.666;23.366;2024-01-25T11:47:36;10.60;;;4.13;;
40204;SDS011;26963;42.666;23.366;2024-01-25T11:50:03;9.85;;;3.30;;
40204;SDS011;26963;42.666;23.366;2024-01-25T11:52:29;11.95;;;3.75;;
40204;SDS011;26963;42.666;23.366;2024-01-25T11:54:58;9.00;;;3.13;;
40204;SDS011;26963;42.666;23.366;2024-01-25T11:57:32;10.85;;;3.58;;
40204;SDS011;26963;42.666;23.366;2024-01-25T12:00:03;9.73;;;3.67;;
40204;SDS011;26963;42.666;23.366;2024-01-25T12:02:31;10.73;;;3.92;;
40204;SDS011;26963;42.666;23.366;2024-01-25T12:04:57;9.52;;;4.07;;
40204;SDS011;26963;42.666;23.366;2024-01-25T12:07:23;11.95;;;5.18;;
40204;SDS011;26963;42.666;23.366;2024-01-25T12:12:44;9.27;;;4.20;;
40204;SDS011;26963;42.666;23.366;2024-01-25T12:15:09;10.60;;;3.92;;
40204;SDS011;26963;42.666;23.366;2024-01-25T12:17:35;12.40;;;4.30;;
40204;SDS011;26963;42.666;23.366;2024-01-25T12:20:05;12.45;;;4.38;;
40204;SDS011;26963;42.666;23.366;2024-01-25T12:22:36;10.02;;;3.70;;
40204;SDS011;26963;42.666;23.366;2024-01-25T12:25:05;9.40;;;3.90;;
40204;SDS011;26963;42.666;23.366;2024-01-25T12:27:33;13.30;;;4.22;;
40204;SDS011;26963;42.666;23.366;2024-01-25T12:29:59;15.30;;;6.97;;
40204;SDS011;26963;42.666;23.366;2024-01-25T12:32:24;13.18;;;4.43;;
40204;SDS011;26963;42.666;23.366;2024-01-25T12:34:54;9.98;;;3.50;;
40204;SDS011;26963;42.666;23.366;2024-01-25T12:37:23;10.13;;;3.30;;
40204;SDS011;26963;42.666;23.366;2024-01-25T12:39:53;9.15;;;3.10;;
40204;SDS011;26963;42.666;23.366;2024-01-25T12:42:19;8.68;;;2.65;;
40204;SDS011;26963;42.666;23.366;2024-01-25T12:44:45;11.02;;;3.38;;
40204;SDS011;26963;42.666;23.366;2024-01-25T12:47:11;9.73;;;3.20;;
40204;SDS011;26963;42.666;23.366;2024-01-25T12:49:40;11.13;;;2.92;;
40204;SDS011;26963;42.666;23.366;2024-01-25T12:52:10;9.60;;;3.00;;
40204;SDS011;26963;42.666;23.366;2024-01-25T12:54:36;10.57;;;3.10;;
40204;SDS011;26963;42.666;23.366;2024-01-25T12:57:03;11.00;;;3.28;;
40204;SDS011;26963;42.666;23.366;2024-01-25T12:59:29;10.95;;;3.60;;
40204;SDS011;26963;42.666;23.366;2024-01-25T13:01:55;11.85;;;5.22;;
40204;SDS011;26963;42.666;23.366;2024-01-25T13:04:21;9.93;;;3.38;;
40204;SDS011;26963;42.666;23.366;2024-01-25T13:06:48;10.95;;;5.05;;
40204;SDS011;26963;42.666;23.366;2024-01-25T13:09:13;7.22;;;3.40;;
40204;SDS011;26963;42.666;23.366;2024-01-25T13:11:40;8.88;;;3.72;;
40204;SDS011;26963;42.666;23.366;2024-01-25T13:14:06;11.80;;;3.20;;
40204;SDS011;26963;42.666;23.366;2024-01-25T13:16:32;11.43;;;4.22;;
40204;SDS011;26963;42.666;23.366;2024-01-25T13:18:58;11.13;;;3.28;;
40204;SDS011;26963;42.666;23.366;2024-01-25T13:21:24;8.68;;;3.45;;
40204;SDS011;26963;42.666;23.366;2024-01-25T13:23:49;8.90;;;3.25;;
40204;SDS011;26963;42.666;23.366;2024-01-25T13:26:15;10.77;;;3.38;;
40204;SDS011;26963;42.666;23.366;2024-01-25T13:28:40;9.75;;;3.40;;
40204;SDS011;26963;42.666;23.366;2024-01-25T13:31:06;9.02;;;3.10;;
40204;SDS011;26963;42.666;23.366;2024-01-25T13:33:31;12.75;;;3.30;;
40204;SDS011;26963;42.666;23.366;2024-01-25T13:35:57;7.70;;;3.05;;
40204;SDS011;26963;42.666;23.366;2024-01-25T13:38:23;9.95;;;3.17;;
40204;SDS011;26963;42.666;23.366;2024-01-25T13:40:49;8.18;;;2.90;;
40204;SDS011;26963;42.666;23.366;2024-01-25T13:43:16;11.65;;;3.22;;
40204;SDS011;26963;42.666;23.366;2024-01-25T13:45:41;10.15;;;3.70;;
40204;SDS011;26963;42.666;23.366;2024-01-25T13:48:07;7.78;;;2.90;;
40204;SDS011;26963;42.666;23.366;2024-01-25T13:50:32;10.32;;;3.50;;
40204;SDS011;26963;42.666;23.366;2024-01-25T13:52:58;11.23;;;3.60;;
40204;SDS011;26963;42.666;23.366;2024-01-25T13:55:24;10.10;;;3.28;;
40204;SDS011;26963;42.666;23.366;2024-01-25T13:57:50;12.80;;;3.70;;
40204;SDS011;26963;42.666;23.366;2024-01-25T14:00:15;9.13;;;3.83;;
40204;SDS011;26963;42.666;23.366;2024-01-25T14:02:41;8.68;;;4.15;;
40204;SDS011;26963;42.666;23.366;2024-01-25T14:05:12;12.23;;;3.72;;
40204;SDS011;26963;42.666;23.366;2024-01-25T14:07:38;10.23;;;3.65;;
40204;SDS011;26963;42.666;23.366;2024-01-25T14:10:04;7.78;;;3.28;;
40204;SDS011;26963;42.666;23.366;2024-01-25T14:12:30;10.05;;;3.08;;
40204;SDS011;26963;42.666;23.366;2024-01-25T14:14:55;11.75;;;3.60;;
40204;SDS011;26963;42.666;23.366;2024-01-25T14:17:21;13.60;;;4.72;;
40204;SDS011;26963;42.666;23.366;2024-01-25T14:19:47;11.18;;;4.20;;
40204;SDS011;26963;42.666;23.366;2024-01-25T14:22:13;9.82;;;4.15;;
40204;SDS011;26963;42.666;23.366;2024-01-25T14:24:39;10.05;;;3.75;;